EDT,Max TemperatureF,Mean TemperatureF,Min TemperatureF,Max Dew PointF,MeanDew PointF,Min DewpointF,Max Humidity, Mean Humidity, Min Humidity, Max Sea Level PressureIn, Mean Sea Level PressureIn, Min Sea Level PressureIn, Max VisibilityMiles, Mean VisibilityMiles, Min VisibilityMiles, Max Wind SpeedMPH, Mean Wind SpeedMPH, Max Gust SpeedMPH,PrecipitationIn, CloudCover, Events, WindDirDegrees
2012-9-1,89,78,68,75,70,63,100,85,40,30.24,30.20,30.15,10,9,5,9,1,,0.00,1,Rain,91
2012-9-2,86,77,68,73,70,68,100,88,55,30.17,30.09,30.03,10,7,0,15,1,23,0.00,3,Fog-Rain,214
2012-9-3,78,74,69,73,71,68,100,96,83,30.09,30.06,30.04,10,6,1,6,1,,0.00,7,Rain,108
2012-9-4,77,73,69,73,71,70,100,96,78,30.07,30.03,29.99,10,6,2,7,1,,0.00,7,Rain,141
2012-9-5,84,76,69,72,70,68,100,86,62,30.03,29.98,29.94,10,8,2,9,2,,0.00,7,,197
2012-9-6,86,78,69,73,69,63,100,81,45,30.05,30.00,29.96,10,8,3,7,1,,0.00,4,Rain,305
2012-9-7,86,74,62,72,67,63,100,81,45,30.07,30.01,29.94,10,8,0,5,1,,0.00,2,Fog,137
2012-9-8,82,71,60,72,64,55,100,85,51,29.95,29.88,29.80,10,7,0,13,1,28,0.00,4,Fog-Rain,270
2012-9-9,78,64,51,61,52,43,100,68,29,30.10,30.01,29.94,10,10,10,13,3,21,0.00,3,,340
2012-9-10,78,63,48,63,54,46,100,76,34,30.23,30.16,30.10,10,9,1,7,1,,0.00,3,,360
2012-9-11,77,66,55,61,56,52,94,74,47,30.38,30.31,30.24,10,10,10,7,3,,0.00,5,,15
2012-9-12,78,66,55,61,58,54,100,78,44,30.43,30.37,30.32,10,8,0,9,1,,0.00,3,Fog,98
2012-9-13,78,66,53,61,55,46,100,78,34,30.44,30.37,30.32,10,8,1,6,1,,0.00,0,,76
2012-9-14,80,66,53,64,56,52,100,77,37,30.36,30.29,30.22,10,10,7,6,1,,0.00,1,,101
2012-9-15,82,68,53,68,58,50,100,77,32,30.29,30.22,30.17,10,8,3,7,1,,0.00,3,Rain,191
2012-9-16,69,66,62,66,64,63,100,96,83,30.22,30.18,30.14,10,4,1,7,1,,0.00,8,Rain,64
2012-9-17,68,65,62,68,64,63,100,99,88,30.18,30.09,29.93,10,4,0,8,0,17,0.00,8,Fog-Rain,72
2012-9-18,71,66,60,68,65,61,100,93,78,29.93,29.83,29.78,10,9,1,13,6,25,0.00,7,Rain,190
2012-9-19,71,62,53,59,55,50,100,78,49,30.20,30.09,29.94,10,9,4,7,1,,0.00,3,,108
2012-9-20,73,66,59,63,58,55,100,82,53,30.23,30.18,30.11,10,10,7,7,1,,0.00,5,,186
2012-9-21,78,66,53,64,57,52,100,83,39,30.16,30.11,30.04,10,6,0,7,1,,0.00,3,Fog,174
2012-9-22,82,68,53,63,57,46,100,72,42,30.10,30.03,29.96,10,8,2,9,2,,0.00,3,,248
2012-9-23,75,60,44,52,42,27,100,60,17,30.22,30.15,30.09,10,10,10,8,3,,0.00,0,,326
2012-9-24,69,53,37,52,41,34,100,68,28,30.31,30.25,30.21,10,10,10,8,3,,0.00,0,,28
2012-9-25,73,55,37,59,49,37,100,83,50,30.30,30.26,30.24,10,9,0,8,1,,0.00,1,Fog,206
2012-9-26,80,66,51,64,58,52,100,84,51,30.29,30.24,30.21,10,8,1,5,0,,0.00,0,,150
2012-9-27,80,66,53,68,58,54,100,84,42,30.29,30.22,30.17,10,6,0,7,0,,0.00,3,Fog,192
2012-9-28,82,68,53,68,61,54,100,90,45,30.20,30.13,30.07,10,6,0,10,1,,0.00,3,Fog-Rain,250
2012-9-29,68,64,59,64,63,59,100,98,83,30.09,30.02,29.95,10,4,0,5,0,,0.00,7,Fog-Rain,32
2012-9-30,69,60,51,61,55,46,100,84,46,30.01,29.97,29.91,10,6,0,5,1,,0.00,4,Fog,23